Archival Weather

Chicago O'Hare International

Chicago, Illinois (KORD)

Report from: Wednesday, June 15, 2022 3:51 PM CDT
Current time: Sunday, November 27, 2022 1:51 AM CST

Current weather
Weather history
Weather forecast

Temperature35.6°C (96.1°F)
Heat index37.2°C (98.9°F)
Dew point18.3°C (64.9°F)
Winds 12 kts (6.2 m/s, 13.8 mph) South-Southwest (200°)
Wind gusts 26 kts (13.4 m/s, 29.9 mph)
Peak wind 32 kts (16.5 m/s, 36.8 mph) South (170°) at 15:28
Visibility10 mi. (16.1 km)
Clouds Scattered clouds 7,000 ft. (2,134 m)
Ceiling: Broken clouds 25,000 ft. (7,620 m)
Altimeter29.83 in.Hg (1010 mB)
Relative humidity36 %
Density altitude2,725 ft. (831 m)
Sea-level pressure100.9 kPa (1009 mB, 29.81 in.Hg)
Remarks Automated weather observing station with precipitation discriminator
Pressure falling more quickly
Flight conditions Visual Meteorological Conditions
Raw dataKORD 152051Z 20012G26KT 10SM SCT070 BKN250 36/18 A2983 RMK AO2 PK WND 17032/2028 SLP094 T03560183 58017
An error has occurred. This application may no longer respond until reloaded. Reload 🗙